Time;durP1;ratioP1;P1;durP2;ratioP2;P2;SDS_P1;SDS_P2;PMS_P1;PMS_P2;Temp;Humidity;BMP_temperature;BMP_pressure;BME280_temperature;BME280_humidity;BME280_pressure;Samples;Min_cycle;Max_cycle;Signal;HPM_P1;HPM_P2
2021/04/06 00:00:59;;;;;;;11.85;1.50;;;2.80;89.70;;;;;;5082856;28;20013;-74
2021/04/06 00:03:27;;;;;;;6.82;1.60;;;2.80;89.60;;;;;;5073380;28;20031;-74
2021/04/06 00:05:59;;;;;;;21.20;2.58;;;2.80;89.50;;;;;;5078699;28;20107;-74
2021/04/06 00:08:27;;;;;;;15.88;2.65;;;2.80;89.60;;;;;;5081375;28;20100;-74
2021/04/06 00:10:56;;;;;;;13.07;2.70;;;2.80;89.60;;;;;;5073571;28;20029;-74
2021/04/06 00:13:25;;;;;;;13.65;2.15;;;2.70;89.80;;;;;;5072188;28;20074;-74
2021/04/06 00:15:51;;;;;;;12.63;2.03;;;2.70;89.40;;;;;;5079460;28;20028;-74
2021/04/06 00:18:19;;;;;;;12.80;2.35;;;2.70;89.40;;;;;;5082189;28;20028;-74
2021/04/06 00:20:46;;;;;;;13.65;2.28;;;2.70;89.40;;;;;;5085941;28;20047;-74
2021/04/06 00:23:13;;;;;;;13.13;1.95;;;2.70;89.50;;;;;;5077061;28;20017;-74
2021/04/06 00:25:43;;;;;;;14.05;2.35;;;2.70;89.50;;;;;;5091323;28;20086;-74
2021/04/06 00:28:13;;;;;;;15.02;2.58;;;2.80;89.40;;;;;;5079052;28;20024;-74
2021/04/06 00:30:41;;;;;;;15.30;2.30;;;2.80;89.50;;;;;;5084520;28;20039;-74
2021/04/06 00:33:15;;;;;;;18.48;2.00;;;2.80;89.50;;;;;;5075302;28;20070;-74
2021/04/06 00:35:42;;;;;;;21.15;1.90;;;2.80;89.50;;;;;;5074205;28;20025;-74
2021/04/06 00:38:12;;;;;;;19.38;3.17;;;2.80;89.40;;;;;;5086915;28;20551;-74
2021/04/06 00:40:48;;;;;;;19.70;2.40;;;2.80;89.30;;;;;;5079130;28;20024;-74
2021/04/06 00:43:16;;;;;;;17.30;2.33;;;2.80;89.30;;;;;;5073493;28;20024;-74
2021/04/06 00:45:43;;;;;;;16.02;2.97;;;2.80;89.40;;;;;;5081116;28;20107;-74
2021/04/06 00:48:12;;;;;;;12.55;2.40;;;2.80;89.40;;;;;;5083829;28;20023;-74
2021/04/06 00:50:39;;;;;;;17.40;2.03;;;2.80;89.90;;;;;;5084199;28;20028;-74
2021/04/06 00:53:05;;;;;;;19.13;2.33;;;2.70;89.30;;;;;;5094549;28;20036;-74
2021/04/06 00:55:37;;;;;;;10.85;2.05;;;2.70;89.40;;;;;;5097232;28;20043;-74
2021/04/06 00:58:13;;;;;;;14.80;2.47;;;2.70;89.60;;;;;;5093417;28;20081;-74
2021/04/06 01:00:40;;;;;;;20.92;3.15;;;2.70;89.60;;;;;;5105863;28;20480;-74
2021/04/06 01:03:08;;;;;;;18.33;2.75;;;2.80;89.60;;;;;;5097638;28;20028;-74
2021/04/06 01:05:55;;;;;;;13.88;2.35;;;2.80;89.40;;;;;;5107231;28;20102;-74
2021/04/06 01:08:25;;;;;;;15.30;2.30;;;2.80;89.10;;;;;;5096418;28;20166;-74
2021/04/06 01:10:51;;;;;;;13.38;2.00;;;2.80;89.10;;;;;;5103828;28;20032;-74
2021/04/06 01:13:18;;;;;;;15.80;2.15;;;2.80;88.90;;;;;;5095494;28;20020;-74
2021/04/06 01:15:43;;;;;;;7.97;2.03;;;2.80;88.90;;;;;;5096404;28;20383;-74
2021/04/06 01:18:09;;;;;;;9.90;2.08;;;2.80;88.60;;;;;;5112716;28;20044;-74
2021/04/06 01:20:35;;;;;;;10.82;1.48;;;2.80;88.20;;;;;;5083483;28;20043;-74
2021/04/06 01:23:02;;;;;;;14.27;2.00;;;2.80;88.10;;;;;;5094452;28;20407;-74
2021/04/06 01:25:33;;;;;;;17.98;2.15;;;2.80;88.10;;;;;;5082369;28;20032;-74
2021/04/06 01:28:09;;;;;;;12.98;2.33;;;2.70;88.10;;;;;;5100611;28;20036;-74
2021/04/06 01:30:45;;;;;;;13.18;2.58;;;2.70;88.50;;;;;;5102668;28;20111;-74
2021/04/06 01:33:21;;;;;;;19.50;3.58;;;2.70;88.70;;;;;;5098356;28;20044;-74
2021/04/06 01:35:48;;;;;;;22.63;2.38;;;2.70;89.10;;;;;;5076203;28;20028;-74
2021/04/06 01:38:15;;;;;;;14.85;2.58;;;2.70;89.20;;;;;;5093691;28;20036;-74
2021/04/06 01:40:46;;;;;;;17.08;2.75;;;2.70;89.30;;;;;;5094766;28;20063;-74
2021/04/06 01:43:14;;;;;;;11.60;1.92;;;2.70;89.20;;;;;;5096986;28;20388;-74
2021/04/06 01:45:49;;;;;;;13.13;2.05;;;2.70;89.10;;;;;;5094439;28;20468;-75
2021/04/06 01:48:16;;;;;;;14.05;2.50;;;2.70;89.00;;;;;;5094380;28;20028;-74
2021/04/06 01:50:46;;;;;;;14.80;2.20;;;2.60;89.00;;;;;;5094389;28;20031;-74
2021/04/06 01:53:14;;;;;;;11.68;2.22;;;2.60;88.90;;;;;;5093902;28;20115;-75
2021/04/06 01:55:41;;;;;;;15.13;2.13;;;2.60;89.00;;;;;;5094315;28;20036;-74
2021/04/06 01:58:08;;;;;;;12.18;2.35;;;2.60;89.00;;;;;;5077354;28;20456;-74
2021/04/06 02:03:08;;;;;;;19.70;2.45;;;2.60;89.10;;;;;;5109773;28;20437;-75
2021/04/06 02:05:34;;;;;;;12.90;2.13;;;2.60;89.00;;;;;;5076932;28;20028;-74
2021/04/06 02:08:07;;;;;;;17.52;2.10;;;2.60;88.90;;;;;;5079579;28;20024;-75
2021/04/06 02:10:34;;;;;;;16.08;2.70;;;2.60;88.80;;;;;;5102196;28;20392;-75
2021/04/06 02:13:26;;;;;;;13.32;2.05;;;2.60;89.10;;;;;;5078800;28;20047;-75
2021/04/06 02:16:02;;;;;;;20.02;3.10;;;2.70;89.40;;;;;;5100108;28;20552;-73
2021/04/06 02:18:32;;;;;;;18.05;2.47;;;2.70;89.50;;;;;;5113797;28;20394;-75
2021/04/06 02:21:05;;;;;;;15.65;2.80;;;2.70;89.90;;;;;;5104428;28;20496;-75
2021/04/06 02:23:45;;;;;;;20.85;4.10;;;2.70;90.00;;;;;;5093511;28;20031;-74
2021/04/06 02:26:14;;;;;;;20.70;3.45;;;2.70;90.10;;;;;;5089824;28;20500;-75
2021/04/06 02:28:41;;;;;;;18.98;3.72;;;2.70;90.20;;;;;;5098155;28;20062;-75
2021/04/06 02:31:07;;;;;;;25.83;4.50;;;2.80;90.40;;;;;;5109485;28;20380;-74
2021/04/06 02:33:36;;;;;;;18.83;3.97;;;2.70;90.30;;;;;;5078491;28;20487;-75
2021/04/06 02:36:09;;;;;;;22.25;4.03;;;2.70;90.40;;;;;;5093475;28;20099;-74
2021/04/06 02:38:39;;;;;;;25.50;4.35;;;2.70;90.40;;;;;;5092999;28;20024;-74
2021/04/06 02:41:13;;;;;;;28.83;4.43;;;2.70;90.40;;;;;;5108395;27;20358;-74
2021/04/06 02:43:43;;;;;;;20.02;4.00;;;2.70;90.30;;;;;;5092814;28;20028;-75
2021/04/06 02:46:10;;;;;;;20.45;4.40;;;2.70;90.30;;;;;;5092916;28;20539;-74
2021/04/06 02:48:35;;;;;;;28.55;4.05;;;2.70;90.20;;;;;;5103521;28;20064;-75
2021/04/06 02:51:02;;;;;;;22.80;4.63;;;2.70;90.10;;;;;;5090705;28;20043;-75
2021/04/06 02:53:31;;;;;;;22.58;3.85;;;2.70;90.10;;;;;;5063547;28;20041;-75
2021/04/06 02:55:57;;;;;;;22.33;3.28;;;2.70;90.10;;;;;;5053543;28;20171;-74
2021/04/06 02:58:22;;;;;;;21.65;3.47;;;2.60;90.00;;;;;;5070601;28;20119;-74
2021/04/06 03:00:48;;;;;;;16.95;3.17;;;2.60;90.10;;;;;;5067814;28;20024;-74
2021/04/06 03:03:25;;;;;;;18.60;3.65;;;2.60;90.00;;;;;;5063469;28;20028;-75
2021/04/06 03:06:07;;;;;;;12.68;2.90;;;2.60;90.00;;;;;;5068356;28;20040;-74
2021/04/06 03:08:34;;;;;;;17.50;3.00;;;2.60;90.00;;;;;;5050867;28;20032;-74
2021/04/06 03:11:01;;;;;;;21.70;2.58;;;2.60;89.80;;;;;;5066774;28;20025;-74
2021/04/06 03:13:28;;;;;;;17.55;3.08;;;2.50;89.70;;;;;;5061869;28;20017;-75
2021/04/06 03:15:55;;;;;;;16.20;3.20;;;2.50;89.90;;;;;;5054641;28;20040;-75
2021/04/06 03:18:30;;;;;;;16.08;3.38;;;2.50;90.20;;;;;;5070678;28;20024;-74
2021/04/06 03:21:00;;;;;;;23.83;3.35;;;2.50;90.00;;;;;;5060622;28;20033;-75
2021/04/06 03:23:26;;;;;;;18.23;3.25;;;2.40;90.00;;;;;;5053782;28;20119;-75
2021/04/06 03:25:51;;;;;;;28.30;3.63;;;2.40;90.00;;;;;;5052395;28;20473;-75
2021/04/06 03:28:17;;;;;;;18.25;3.70;;;2.40;90.00;;;;;;5054220;28;20036;-75
2021/04/06 03:30:44;;;;;;;20.95;3.47;;;2.30;90.00;;;;;;5054464;28;20039;-75
2021/04/06 03:33:14;;;;;;;26.00;3.88;;;2.30;90.10;;;;;;5068180;28;20032;-75
2021/04/06 03:35:46;;;;;;;17.17;3.63;;;2.30;90.10;;;;;;5061312;28;20087;-75
2021/04/06 03:38:13;;;;;;;21.20;3.70;;;2.30;90.10;;;;;;5062209;28;20473;-75
2021/04/06 03:40:40;;;;;;;17.10;3.00;;;2.30;90.10;;;;;;5057784;28;20025;-75
2021/04/06 03:43:15;;;;;;;23.30;4.10;;;2.20;90.20;;;;;;5064665;28;20116;-75
2021/04/06 03:46:01;;;;;;;23.10;3.50;;;2.30;90.20;;;;;;5054312;28;20528;-75
2021/04/06 03:48:29;;;;;;;16.40;2.90;;;2.20;90.10;;;;;;5054875;28;20025;-75
2021/04/06 03:50:56;;;;;;;19.83;3.30;;;2.20;90.10;;;;;;5071231;28;20043;-75
2021/04/06 03:53:23;;;;;;;19.55;2.75;;;2.10;90.10;;;;;;5092743;28;20036;-75
2021/04/06 03:56:08;;;;;;;17.67;3.45;;;2.10;90.20;;;;;;5075910;28;20028;-75
2021/04/06 03:58:43;;;;;;;18.02;3.03;;;2.10;90.20;;;;;;5085699;28;20061;-75
2021/04/06 04:01:11;;;;;;;14.63;2.88;;;2.10;90.10;;;;;;5102033;28;20028;-75
2021/04/06 04:03:37;;;;;;;19.88;2.65;;;2.10;90.20;;;;;;5104877;28;20035;-75
2021/04/06 04:06:03;;;;;;;17.05;2.28;;;2.10;90.20;;;;;;5089586;28;20438;-75
2021/04/06 04:08:29;;;;;;;24.52;3.38;;;2.10;90.10;;;;;;5078010;28;20032;-75
2021/04/06 04:10:54;;;;;;;18.63;2.85;;;2.10;90.10;;;;;;5096583;28;20492;-75
2021/04/06 04:13:20;;;;;;;16.00;2.72;;;2.10;90.10;;;;;;5095984;28;20101;-74
2021/04/06 04:15:46;;;;;;;15.77;2.53;;;2.10;90.10;;;;;;5097637;28;20104;-74
2021/04/06 04:18:12;;;;;;;16.65;2.50;;;2.10;90.00;;;;;;5104974;28;20488;-74
2021/04/06 04:20:38;;;;;;;15.25;2.42;;;2.10;90.00;;;;;;5095849;28;20098;-74
2021/04/06 04:23:04;;;;;;;15.65;2.10;;;2.10;90.00;;;;;;5077327;28;20365;-75
2021/04/06 04:25:30;;;;;;;24.20;2.50;;;2.10;90.00;;;;;;5096056;28;20437;-75
2021/04/06 04:27:55;;;;;;;13.32;2.03;;;2.10;90.00;;;;;;5078921;28;20055;-74
2021/04/06 04:33:08;;;;;;;13.40;2.38;;;2.10;90.00;;;;;;5093808;28;20384;-74
2021/04/06 04:35:35;;;;;;;11.18;2.05;;;2.10;90.00;;;;;;5095492;28;20081;-75
2021/04/06 04:38:00;;;;;;;13.60;1.83;;;2.00;90.00;;;;;;5095437;28;20484;-74
2021/04/06 04:40:27;;;;;;;22.92;2.38;;;2.00;90.00;;;;;;5077564;28;20044;-74
2021/04/06 04:42:53;;;;;;;12.75;1.95;;;2.10;90.00;;;;;;5079766;28;20383;-74
2021/04/06 04:45:20;;;;;;;12.27;1.92;;;2.10;90.00;;;;;;5095162;28;20030;-74
2021/04/06 04:47:46;;;;;;;15.50;1.98;;;2.10;89.90;;;;;;5096078;28;20062;-75
2021/04/06 04:50:12;;;;;;;15.98;1.90;;;2.10;89.90;;;;;;5102958;28;20032;-75
2021/04/06 04:52:38;;;;;;;16.23;2.60;;;2.10;89.90;;;;;;5095273;28;20119;-75
2021/04/06 04:55:05;;;;;;;18.33;2.03;;;2.00;90.00;;;;;;5095335;28;20024;-75
2021/04/06 04:57:30;;;;;;;16.42;2.85;;;2.00;90.10;;;;;;5060551;28;20093;-74
2021/04/06 04:59:56;;;;;;;14.30;2.30;;;2.00;90.10;;;;;;5094537;28;20472;-74
2021/04/06 05:02:22;;;;;;;15.70;2.28;;;2.00;90.10;;;;;;5076709;28;20032;-74
2021/04/06 05:04:48;;;;;;;20.77;2.30;;;1.90;90.20;;;;;;5076925;28;20027;-74
2021/04/06 05:07:14;;;;;;;13.85;2.30;;;1.90;90.30;;;;;;5095000;28;20028;-74
2021/04/06 05:09:40;;;;;;;8.82;2.00;;;1.90;90.40;;;;;;5095354;28;20039;-74
2021/04/06 05:12:06;;;;;;;10.35;1.77;;;1.80;90.30;;;;;;5077446;28;20024;-74
2021/04/06 05:14:32;;;;;;;11.82;2.10;;;1.90;90.40;;;;;;5076339;28;20510;-74
2021/04/06 05:16:57;;;;;;;11.73;2.38;;;1.90;90.40;;;;;;5076831;28;20480;-74
2021/04/06 05:19:23;;;;;;;14.70;2.22;;;1.90;90.40;;;;;;5076976;28;20029;-74
2021/04/06 05:21:49;;;;;;;14.63;2.13;;;1.90;90.40;;;;;;5095241;28;20453;-74
2021/04/06 05:24:14;;;;;;;8.43;2.25;;;1.90;90.30;;;;;;5077009;28;20103;-74
2021/04/06 05:26:40;;;;;;;8.43;1.80;;;1.90;90.30;;;;;;5095074;28;20035;-74
2021/04/06 05:29:05;;;;;;;11.63;2.63;;;1.90;90.30;;;;;;5059814;28;20046;-75
2021/04/06 05:31:31;;;;;;;10.32;2.67;;;2.00;90.30;;;;;;5094565;28;20038;-74
2021/04/06 05:33:56;;;;;;;10.25;2.10;;;2.00;90.20;;;;;;5094600;28;20484;-74
2021/04/06 05:36:22;;;;;;;11.45;1.80;;;2.00;90.20;;;;;;5094412;28;21875;-74
2021/04/06 05:38:48;;;;;;;13.07;2.50;;;2.00;90.10;;;;;;5094523;28;20415;-74
2021/04/06 05:41:15;;;;;;;9.45;1.80;;;2.00;90.10;;;;;;5076368;28;20035;-74
2021/04/06 05:43:41;;;;;;;11.25;1.70;;;2.00;90.10;;;;;;5076442;28;20062;-74
2021/04/06 05:46:11;;;;;;;9.75;2.05;;;2.10;90.00;;;;;;5059482;28;20052;-74
2021/04/06 05:48:37;;;;;;;14.15;2.20;;;2.10;89.90;;;;;;5099422;28;20059;-74
2021/04/06 05:51:03;;;;;;;14.57;2.80;;;2.10;89.80;;;;;;5091505;28;20012;-75
2021/04/06 05:53:29;;;;;;;11.18;2.10;;;2.20;89.70;;;;;;5074255;28;20389;-74
2021/04/06 05:55:58;;;;;;;8.98;2.20;;;2.20;89.50;;;;;;5042057;28;20508;-74
2021/04/06 05:58:24;;;;;;;14.18;2.40;;;2.10;89.60;;;;;;5063421;28;20029;-74
2021/04/06 06:00:50;;;;;;;15.63;2.80;;;2.10;89.50;;;;;;5057190;28;20031;-74
2021/04/06 06:03:16;;;;;;;14.35;2.63;;;2.10;90.00;;;;;;5054109;28;20556;-71
2021/04/06 06:05:42;;;;;;;12.98;2.50;;;2.10;89.70;;;;;;5058930;28;20037;-71
2021/04/06 06:08:12;;;;;;;12.43;2.30;;;2.10;89.60;;;;;;5071870;28;20028;-71
2021/04/06 06:10:38;;;;;;;13.23;2.22;;;2.10;89.60;;;;;;5044477;28;20129;-71
2021/04/06 06:13:36;;;;;;;11.38;2.20;;;2.20;89.60;;;;;;5053753;28;20032;-71
2021/04/06 06:16:09;;;;;;;11.13;2.13;;;2.20;89.50;;;;;;5051007;28;20045;-71
2021/04/06 06:19:05;;;;;;;13.13;1.77;;;2.30;89.50;;;;;;5052398;28;20032;-71
2021/04/06 06:21:38;;;;;;;13.82;2.60;;;2.30;89.60;;;;;;5055899;28;20089;-71
2021/04/06 06:24:05;;;;;;;14.65;2.50;;;2.40;89.40;;;;;;5055437;28;20037;-73
2021/04/06 06:26:31;;;;;;;11.23;1.95;;;2.50;89.20;;;;;;5062945;28;20110;-72
2021/04/06 06:29:09;;;;;;;16.00;2.22;;;2.50;89.00;;;;;;5056270;28;20059;-73
2021/04/06 06:31:38;;;;;;;10.73;1.92;;;2.60;88.90;;;;;;5063776;28;20020;-73
2021/04/06 06:34:21;;;;;;;;;;;2.70;88.70;;;;;;5054943;28;20025;-73
2021/04/06 06:37:02;;;;;;;12.35;2.03;;;2.90;88.50;;;;;;5055467;28;19944;-73
2021/04/06 06:39:27;;;;;;;11.52;2.22;;;2.90;88.30;;;;;;5061852;28;20024;-73
2021/04/06 06:42:10;;;;;;;13.77;1.80;;;3.00;88.00;;;;;;5071538;28;20074;-73
2021/04/06 06:44:38;;;;;;;12.55;1.67;;;3.10;87.50;;;;;;5042560;28;20025;-73
2021/04/06 06:47:10;;;;;;;11.20;1.73;;;3.10;87.60;;;;;;5061021;28;20365;-73
2021/04/06 06:49:38;;;;;;;10.63;2.00;;;3.10;87.40;;;;;;5068176;28;20056;-72
2021/04/06 06:52:24;;;;;;;17.73;2.47;;;3.10;87.10;;;;;;5075145;28;20039;-72
2021/04/06 06:54:59;;;;;;;16.15;2.63;;;3.10;87.00;;;;;;5072571;28;20168;-72
2021/04/06 06:57:30;;;;;;;12.90;1.98;;;3.10;87.50;;;;;;5092974;28;20096;-72
2021/04/06 07:00:10;;;;;;;8.13;1.58;;;3.20;87.70;;;;;;5096535;28;20499;-72
2021/04/06 07:02:35;;;;;;;;;;;3.30;87.60;;;;;;5093189;28;20378;-72
2021/04/06 07:05:12;;;;;;;11.45;1.95;;;3.30;87.20;;;;;;5093078;28;20008;-72
2021/04/06 07:08:08;;;;;;;7.40;1.38;;;3.20;87.40;;;;;;5092700;28;20107;-72
2021/04/06 07:10:34;;;;;;;10.60;1.73;;;3.10;87.30;;;;;;5056259;28;20528;-72
2021/04/06 07:13:06;;;;;;;9.13;1.70;;;3.00;87.30;;;;;;5092899;28;20040;-73
2021/04/06 07:15:34;;;;;;;11.57;1.77;;;3.00;87.80;;;;;;5092775;28;20027;-72
2021/04/06 07:18:04;;;;;;;8.48;1.83;;;3.00;88.20;;;;;;5092894;28;20032;-72
2021/04/06 07:20:32;;;;;;;8.45;1.75;;;3.00;88.10;;;;;;5092232;28;20465;-72
2021/04/06 07:23:02;;;;;;;8.68;2.08;;;3.20;87.80;;;;;;5074164;28;20511;-72
2021/04/06 07:25:28;;;;;;;8.40;1.67;;;3.40;87.70;;;;;;5092294;28;20028;-72
2021/04/06 07:27:54;;;;;;;6.60;1.40;;;3.60;86.30;;;;;;5073699;28;20034;-72
2021/04/06 07:30:21;;;;;;;7.47;1.65;;;3.70;86.10;;;;;;5072957;28;20024;-72
2021/04/06 07:32:47;;;;;;;7.50;1.58;;;3.70;84.60;;;;;;5092326;28;20035;-72
2021/04/06 07:35:14;;;;;;;6.43;1.67;;;3.70;84.20;;;;;;5093980;28;20047;-72
2021/04/06 07:37:41;;;;;;;8.93;1.65;;;3.70;85.20;;;;;;5078105;28;20058;-71
2021/04/06 07:40:10;;;;;;;10.60;1.92;;;3.70;85.90;;;;;;5078050;28;20028;-72
2021/04/06 07:42:44;;;;;;;9.10;2.30;;;4.00;86.70;;;;;;5078455;28;20047;-72
2021/04/06 07:45:21;;;;;;;7.90;1.55;;;4.40;84.80;;;;;;5077933;28;20258;-73
2021/04/06 07:47:47;;;;;;;9.00;1.70;;;4.70;83.80;;;;;;5096395;28;20476;-73
2021/04/06 07:50:14;;;;;;;19.85;1.33;;;4.80;83.00;;;;;;5095375;28;20039;-72
2021/04/06 07:52:40;;;;;;;8.98;1.38;;;4.90;83.30;;;;;;5096252;28;20036;-72
2021/04/06 07:55:06;;;;;;;5.20;1.20;;;5.00;82.20;;;;;;5096259;28;20430;-73
2021/04/06 07:57:47;;;;;;;10.10;1.55;;;5.00;80.20;;;;;;5095809;28;20093;-72
2021/04/06 08:00:49;;;;;;;4.25;1.20;;;5.10;79.70;;;;;;5094898;28;20035;-72
2021/04/06 08:03:49;;;;;;;7.03;1.75;;;5.10;79.50;;;;;;5094365;28;20024;-71
2021/04/06 08:06:22;;;;;;;9.80;1.48;;;5.30;80.00;;;;;;5095120;28;20491;-71
2021/04/06 08:08:48;;;;;;;6.20;1.67;;;5.40;78.40;;;;;;5073939;28;20039;-71
2021/04/06 08:11:14;;;;;;;5.50;1.27;;;5.50;78.40;;;;;;5096201;28;20388;-71
2021/04/06 08:13:41;;;;;;;5.60;1.20;;;5.60;78.80;;;;;;5060776;28;20020;-71
2021/04/06 08:16:11;;;;;;;7.35;1.20;;;5.70;78.40;;;;;;5095324;28;20054;-72
2021/04/06 08:18:51;;;;;;;5.22;1.23;;;5.70;77.00;;;;;;5095767;28;20054;-73
2021/04/06 08:21:17;;;;;;;;;;;5.70;77.60;;;;;;5095842;28;20025;-72
2021/04/06 08:23:45;;;;;;;3.85;1.15;;;5.80;77.80;;;;;;5077237;28;19912;-73
2021/04/06 08:26:32;;;;;;;5.57;1.60;;;5.90;77.70;;;;;;5077863;28;20036;-73
2021/04/06 08:29:22;;;;;;;6.43;1.35;;;5.90;76.00;;;;;;5096085;28;20504;-73
2021/04/06 08:32:14;;;;;;;6.13;1.20;;;5.90;75.80;;;;;;5095934;28;20043;-72
2021/04/06 08:34:53;;;;;;;7.28;1.80;;;6.00;76.10;;;;;;5077086;28;20039;-73
2021/04/06 08:37:35;;;;;;;10.63;1.23;;;6.20;74.90;;;;;;5095516;28;20080;-73
2021/04/06 08:40:02;;;;;;;3.95;1.20;;;6.00;74.70;;;;;;5095231;28;20111;-73
2021/04/06 08:42:29;;;;;;;8.55;1.63;;;5.70;76.00;;;;;;5095347;28;20028;-73
2021/04/06 08:44:57;;;;;;;8.05;1.80;;;5.40;77.40;;;;;;5077221;28;20028;-73
2021/04/06 08:47:46;;;;;;;4.03;1.00;;;5.10;77.50;;;;;;5095342;28;20024;-73
2021/04/06 08:50:35;;;;;;;9.32;1.65;;;4.90;79.00;;;;;;5077398;28;20303;-73
2021/04/06 08:53:01;;;;;;;5.88;1.50;;;4.80;80.90;;;;;;5094436;28;20044;-73
2021/04/06 08:55:27;;;;;;;3.67;1.20;;;4.80;82.10;;;;;;5093461;28;20062;-73
2021/04/06 08:58:00;;;;;;;3.30;0.90;;;4.60;81.60;;;;;;5075384;28;20040;-73
2021/04/06 09:00:27;;;;;;;5.22;1.42;;;4.20;82.00;;;;;;5093808;28;20058;-73
2021/04/06 09:03:06;;;;;;;7.13;1.48;;;3.90;82.80;;;;;;5075945;28;20353;-73
2021/04/06 09:05:32;;;;;;;6.32;1.60;;;3.70;84.00;;;;;;5075714;28;20028;-73
2021/04/06 09:07:58;;;;;;;5.03;1.20;;;3.80;85.50;;;;;;5093754;28;20495;-73
2021/04/06 09:10:35;;;;;;;4.47;1.55;;;4.10;86.60;;;;;;5094162;28;20380;-74
2021/04/06 09:13:01;;;;;;;5.03;1.63;;;4.40;87.90;;;;;;5077532;28;20042;-74
2021/04/06 09:15:27;;;;;;;4.28;1.80;;;4.80;87.70;;;;;;5074678;28;20040;-74
2021/04/06 09:18:01;;;;;;;7.53;1.80;;;5.10;88.00;;;;;;5093733;28;20032;-75
2021/04/06 09:20:28;;;;;;;9.05;1.85;;;5.60;87.30;;;;;;5075154;28;20555;-75
2021/04/06 09:22:53;;;;;;;13.27;1.75;;;5.70;85.60;;;;;;5075505;28;20043;-75
2021/04/06 09:25:29;;;;;;;10.70;1.85;;;6.00;83.70;;;;;;5042022;28;20476;-75
2021/04/06 09:28:00;;;;;;;10.38;1.45;;;6.10;80.30;;;;;;5075132;28;20080;-75
2021/04/06 09:30:33;;;;;;;11.57;1.67;;;6.20;79.10;;;;;;5075118;28;20071;-76
2021/04/06 09:33:18;;;;;;;12.32;1.80;;;6.20;76.30;;;;;;5092940;28;20035;-76
2021/04/06 09:35:52;;;;;;;11.50;2.10;;;6.20;76.50;;;;;;5093001;28;20031;-76
2021/04/06 09:38:23;;;;;;;11.30;1.95;;;6.40;77.00;;;;;;5093140;28;20400;-78
2021/04/06 09:40:49;;;;;;;7.35;1.58;;;6.40;74.50;;;;;;5078981;28;20020;-77
2021/04/06 09:43:15;;;;;;;6.72;1.48;;;6.40;73.60;;;;;;5075959;28;20028;-76
2021/04/06 09:45:41;;;;;;;9.35;1.70;;;6.30;73.70;;;;;;5074755;28;20465;-77
2021/04/06 09:48:11;;;;;;;10.57;2.03;;;6.10;74.10;;;;;;5074796;28;20032;-76
2021/04/06 09:50:36;;;;;;;9.23;1.38;;;5.80;74.40;;;;;;5094244;28;20032;-77
2021/04/06 09:53:14;;;;;;;7.90;1.50;;;5.60;75.50;;;;;;5032009;28;600340;-77
2021/04/06 09:55:40;;;;;;;6.07;1.60;;;5.40;77.10;;;;;;5074161;28;20392;-77
2021/04/06 09:58:06;;;;;;;10.70;1.77;;;5.20;77.60;;;;;;5049054;28;20025;-77
2021/04/06 10:00:35;;;;;;;13.75;1.75;;;4.90;77.80;;;;;;5053306;28;20025;-77
2021/04/06 10:03:09;;;;;;;4.43;1.17;;;4.60;77.40;;;;;;5054253;28;20085;-77
2021/04/06 10:05:36;;;;;;;5.90;0.90;;;4.20;77.20;;;;;;5061709;28;20070;-77
2021/04/06 10:08:03;;;;;;;4.13;0.77;;;3.90;78.80;;;;;;5059632;28;20027;-77
2021/04/06 10:10:32;;;;;;;2.83;0.60;;;3.70;79.10;;;;;;5063119;28;20043;-77
2021/04/06 10:12:59;;;;;;;;;;;3.60;79.90;;;;;;5063188;28;20540;-77
2021/04/06 10:15:27;;;;;;;4.32;0.43;;;3.40;80.10;;;;;;5066832;28;20380;-77
2021/04/06 10:17:54;;;;;;;2.92;0.80;;;3.30;80.70;;;;;;5052517;28;20028;-77
2021/04/06 10:20:23;;;;;;;3.80;0.73;;;3.10;80.50;;;;;;5055482;28;20025;-76
2021/04/06 10:22:49;;;;;;;4.60;0.90;;;2.90;82.70;;;;;;5056679;28;20039;-77
2021/04/06 10:25:26;;;;;;;10.20;1.40;;;2.70;84.60;;;;;;5053294;28;20021;-77
2021/04/06 10:27:53;;;;;;;7.05;1.42;;;2.50;87.00;;;;;;5050708;28;20037;-76
2021/04/06 10:30:31;;;;;;;6.93;1.48;;;2.30;88.50;;;;;;5053732;28;20029;-76
2021/04/06 10:33:11;;;;;;;2.20;0.90;;;2.20;89.70;;;;;;5053979;28;20103;-76
2021/04/06 10:36:02;;;;;;;1.63;1.05;;;2.10;90.30;;;;;;5054087;28;20549;-76
2021/04/06 10:38:34;;;;;;;1.13;0.68;;;2.00;90.60;;;;;;5052197;28;20125;-76
2021/04/06 10:41:16;;;;;;;2.45;0.95;;;2.00;90.80;;;;;;5053684;28;20017;-76
2021/04/06 10:43:48;;;;;;;1.15;0.68;;;2.00;90.80;;;;;;5033692;28;20025;-77
2021/04/06 10:46:23;;;;;;;0.82;0.68;;;2.10;90.80;;;;;;5051333;28;20012;-77
2021/04/06 10:48:59;;;;;;;0.82;0.55;;;2.30;90.80;;;;;;5064121;28;20115;-77
2021/04/06 10:51:25;;;;;;;1.60;0.60;;;2.60;90.70;;;;;;5073418;28;20158;-77
2021/04/06 10:54:07;;;;;;;1.25;0.40;;;3.10;90.30;;;;;;5090220;28;20062;-77
2021/04/06 10:56:41;;;;;;;0.95;0.50;;;3.70;89.50;;;;;;5084012;28;20024;-77
2021/04/06 10:59:09;;;;;;;2.17;0.70;;;4.50;87.90;;;;;;5093274;28;20051;-77
2021/04/06 11:01:47;;;;;;;2.45;0.80;;;5.20;85.50;;;;;;5092966;28;20023;-77
2021/04/06 11:04:19;;;;;;;3.38;0.90;;;5.80;83.30;;;;;;5093221;28;20020;-77
2021/04/06 11:06:57;;;;;;;2.60;0.63;;;6.20;80.80;;;;;;5092830;28;20036;-77
2021/04/06 11:09:39;;;;;;;1.33;0.63;;;6.60;80.50;;;;;;5084688;28;20020;-77
2021/04/06 11:12:11;;;;;;;1.42;0.65;;;7.00;79.30;;;;;;5106361;28;20081;-77
2021/04/06 11:14:37;;;;;;;4.55;1.10;;;7.40;77.70;;;;;;5075517;28;20024;-77
2021/04/06 11:17:05;;;;;;;3.92;0.90;;;7.80;77.00;;;;;;5093057;28;20485;-77
2021/04/06 11:19:43;;;;;;;3.78;0.88;;;8.10;75.20;;;;;;5075302;28;20036;-77
2021/04/06 11:22:11;;;;;;;5.95;1.20;;;8.30;74.10;;;;;;5092815;28;20027;-77
2021/04/06 11:24:38;;;;;;;6.97;1.25;;;8.30;73.20;;;;;;5075324;28;20119;-77
2021/04/06 11:27:06;;;;;;;8.38;1.23;;;8.00;72.10;;;;;;5075216;28;20039;-77
2021/04/06 11:29:34;;;;;;;9.20;1.50;;;7.40;71.30;;;;;;5075346;28;20126;-77
2021/04/06 11:32:03;;;;;;;9.07;1.10;;;6.90;72.30;;;;;;5075271;28;20090;-77
2021/04/06 11:34:30;;;;;;;3.90;1.23;;;6.40;74.30;;;;;;5075251;28;20077;-77
2021/04/06 11:36:56;;;;;;;8.50;1.50;;;6.10;75.00;;;;;;5074681;28;20102;-77
2021/04/06 11:39:26;;;;;;;9.18;1.63;;;5.70;76.00;;;;;;5093073;28;20018;-77
2021/04/06 11:41:52;;;;;;;2.65;1.30;;;5.30;76.60;;;;;;5093238;28;20020;-76
2021/04/06 11:44:18;;;;;;;5.63;1.50;;;4.90;77.50;;;;;;5074978;28;20024;-76
2021/04/06 11:46:45;;;;;;;6.30;1.00;;;4.40;80.30;;;;;;5075112;28;20038;-76
2021/04/06 11:49:12;;;;;;;4.43;0.80;;;4.00;81.90;;;;;;5093138;28;20031;-76
2021/04/06 11:51:39;;;;;;;2.90;1.10;;;3.60;83.20;;;;;;5093020;28;20056;-76
2021/04/06 11:54:06;;;;;;;3.22;0.82;;;3.40;84.60;;;;;;5075653;28;20455;-76
2021/04/06 11:56:32;;;;;;;3.28;0.98;;;3.50;85.50;;;;;;5067792;28;20039;-76
2021/04/06 11:59:00;;;;;;;4.68;0.75;;;3.60;86.20;;;;;;5071739;28;20028;-76
2021/04/06 12:01:27;;;;;;;3.87;0.77;;;3.90;87.10;;;;;;5057813;28;20120;-76
2021/04/06 12:03:53;;;;;;;3.92;1.17;;;4.20;87.00;;;;;;5053249;28;20025;-76
2021/04/06 12:06:19;;;;;;;6.63;1.15;;;4.60;86.20;;;;;;5072814;28;20024;-76
2021/04/06 12:08:44;;;;;;;3.50;1.00;;;4.90;84.80;;;;;;5060843;28;20486;-76
2021/04/06 12:11:10;;;;;;;7.60;1.20;;;5.10;82.80;;;;;;5051356;28;20503;-76
2021/04/06 12:13:36;;;;;;;6.18;1.23;;;5.20;82.80;;;;;;5056573;28;20058;-76
2021/04/06 12:16:02;;;;;;;6.05;1.00;;;5.40;81.50;;;;;;5060369;28;20155;-76
2021/04/06 12:18:28;;;;;;;7.13;1.40;;;5.50;79.90;;;;;;5069266;28;20036;-76
2021/04/06 12:20:54;;;;;;;4.82;1.40;;;5.40;78.50;;;;;;5053531;28;20021;-76
2021/04/06 12:23:19;;;;;;;5.25;1.10;;;5.40;78.90;;;;;;5063350;28;20025;-76
2021/04/06 12:25:45;;;;;;;10.13;1.85;;;5.40;79.20;;;;;;5055762;28;20062;-76
2021/04/06 12:28:10;;;;;;;8.38;1.58;;;5.40;78.20;;;;;;5060193;28;20033;-76
2021/04/06 12:30:36;;;;;;;4.90;1.10;;;5.30;77.20;;;;;;5072156;28;20033;-76
2021/04/06 12:33:02;;;;;;;8.27;1.27;;;5.20;78.00;;;;;;5061725;28;20033;-76
2021/04/06 12:35:28;;;;;;;4.55;0.77;;;5.00;77.40;;;;;;5074853;28;20086;-77
2021/04/06 12:37:56;;;;;;;4.68;1.23;;;4.70;78.90;;;;;;5075667;28;20021;-76
2021/04/06 12:40:21;;;;;;;4.93;0.98;;;4.10;80.60;;;;;;5036036;28;20029;-76
2021/04/06 12:42:47;;;;;;;4.32;0.57;;;3.70;82.40;;;;;;5048362;28;20040;-76
2021/04/06 12:45:15;;;;;;;3.45;0.47;;;3.30;82.80;;;;;;5054574;28;20025;-76
2021/04/06 12:47:41;;;;;;;2.70;0.68;;;3.10;84.30;;;;;;5055813;28;20369;-76
2021/04/06 12:50:08;;;;;;;3.13;0.43;;;2.90;85.50;;;;;;5056282;28;20029;-76
2021/04/06 12:52:34;;;;;;;2.05;0.30;;;2.60;87.40;;;;;;5064194;28;20044;-76
2021/04/06 12:54:59;;;;;;;3.80;0.50;;;2.40;89.00;;;;;;5095607;28;20401;-76
2021/04/06 12:57:25;;;;;;;2.05;0.40;;;2.30;90.00;;;;;;5078766;28;20036;-75
2021/04/06 12:59:56;;;;;;;3.38;0.50;;;2.20;90.10;;;;;;5107037;28;20036;-75
2021/04/06 13:02:22;;;;;;;0.38;0.30;;;2.30;90.20;;;;;;5095486;28;20027;-76
2021/04/06 13:04:48;;;;;;;3.17;0.50;;;2.50;90.00;;;;;;5094481;28;20055;-75
2021/04/06 13:07:14;;;;;;;2.45;0.70;;;2.90;89.70;;;;;;5060484;28;20048;-76
2021/04/06 13:09:40;;;;;;;4.95;0.75;;;3.30;89.00;;;;;;5095435;28;20179;-76
2021/04/06 13:12:05;;;;;;;2.95;0.68;;;3.70;86.60;;;;;;5095454;28;20162;-76